Time;durP1;ratioP1;P1;durP2;ratioP2;P2;SDS_P1;SDS_P2;PMS_P1;PMS_P2;Temp;Humidity;BMP_temperature;BMP_pressure;BME280_temperature;BME280_humidity;BME280_pressure;Samples;Min_cycle;Max_cycle;Signal;HPM_P1;HPM_P2
2022/02/26 00:00:24;;;;;;;23.15;6.50;;;4.20;99.90;;;;;;2067619;28;20027;-79
2022/02/26 00:01:28;;;;;;;19.63;6.28;;;4.20;99.90;;;;;;2075229;28;20030;-78
2022/02/26 00:02:29;;;;;;;23.08;6.72;;;4.10;99.90;;;;;;2073009;28;20034;-77
2022/02/26 00:03:29;;;;;;;20.85;6.88;;;4.10;99.90;;;;;;2072691;28;20022;-78
2022/02/26 00:04:33;;;;;;;21.30;6.60;;;4.10;99.90;;;;;;2072956;28;20034;-77
2022/02/26 00:05:34;;;;;;;19.38;6.47;;;4.10;99.90;;;;;;2074202;28;20029;-77
2022/02/26 00:06:37;;;;;;;17.42;6.40;;;4.20;99.90;;;;;;2066074;28;20046;-77
2022/02/26 00:07:38;;;;;;;22.83;6.45;;;4.20;99.90;;;;;;2065560;28;20031;-77
2022/02/26 00:08:39;;;;;;;18.88;6.85;;;4.20;99.90;;;;;;2073683;28;20098;-78
2022/02/26 00:09:39;;;;;;;15.35;5.70;;;4.10;99.90;;;;;;2074895;28;20030;-77
2022/02/26 00:10:40;;;;;;;24.75;6.60;;;4.10;99.90;;;;;;2074283;28;20022;-77
2022/02/26 00:11:40;;;;;;;20.38;6.40;;;4.10;99.90;;;;;;2073098;28;20729;-77
2022/02/26 00:12:41;;;;;;;20.02;6.55;;;4.10;99.90;;;;;;2066241;28;20038;-78
2022/02/26 00:13:42;;;;;;;20.35;6.60;;;4.10;99.90;;;;;;2065772;28;20062;-78
2022/02/26 00:14:42;;;;;;;21.13;6.30;;;4.10;99.90;;;;;;2065659;28;20046;-78
2022/02/26 00:15:43;;;;;;;20.88;6.55;;;4.10;99.90;;;;;;2063816;28;20482;-78
2022/02/26 00:16:43;;;;;;;20.83;7.13;;;4.10;99.90;;;;;;2056142;28;20047;-78
2022/02/26 00:17:44;;;;;;;18.40;6.30;;;4.10;99.90;;;;;;2048225;28;20043;-78
2022/02/26 00:18:45;;;;;;;22.13;7.22;;;4.10;99.90;;;;;;2057552;28;20070;-77
2022/02/26 00:19:51;;;;;;;23.05;6.93;;;4.10;99.90;;;;;;2073374;28;20029;-78
2022/02/26 00:20:51;;;;;;;20.90;6.53;;;4.10;99.90;;;;;;2073001;28;20137;-78
2022/02/26 00:21:53;;;;;;;18.65;6.53;;;4.10;99.90;;;;;;2073898;28;20033;-78
2022/02/26 00:22:54;;;;;;;24.05;6.93;;;4.10;99.90;;;;;;2073549;28;20053;-78
2022/02/26 00:23:55;;;;;;;19.42;6.40;;;4.10;99.90;;;;;;2066324;28;20027;-77
2022/02/26 00:24:58;;;;;;;18.77;6.40;;;4.00;99.90;;;;;;2064700;28;20026;-77
2022/02/26 00:25:59;;;;;;;21.63;6.18;;;4.00;99.90;;;;;;2057988;28;20133;-77
2022/02/26 00:26:59;;;;;;;21.83;6.45;;;4.00;99.90;;;;;;2065903;28;20023;-79
2022/02/26 00:28:00;;;;;;;24.10;6.72;;;4.00;99.90;;;;;;2066498;28;20042;-78
2022/02/26 00:29:01;;;;;;;22.02;6.78;;;4.00;99.90;;;;;;2073764;28;20029;-77
2022/02/26 00:30:04;;;;;;;25.80;6.97;;;4.10;99.90;;;;;;2074437;28;20366;-78
2022/02/26 00:31:09;;;;;;;24.40;6.65;;;4.10;99.90;;;;;;2074269;28;20080;-79
2022/02/26 00:32:09;;;;;;;20.75;6.70;;;4.10;99.90;;;;;;2073536;28;20022;-78
2022/02/26 00:33:13;;;;;;;19.63;6.20;;;4.10;99.90;;;;;;2066895;28;20026;-78
2022/02/26 00:34:14;;;;;;;20.75;6.43;;;4.10;99.90;;;;;;2066062;28;20030;-77
2022/02/26 00:35:15;;;;;;;21.08;6.70;;;4.10;99.90;;;;;;2059269;28;20093;-78
2022/02/26 00:36:15;;;;;;;24.55;7.13;;;4.10;99.90;;;;;;2059187;28;20062;-79
2022/02/26 00:37:16;;;;;;;22.85;6.68;;;4.10;99.90;;;;;;2065915;28;20493;-77
2022/02/26 00:38:17;;;;;;;25.55;6.53;;;4.10;99.90;;;;;;2074286;28;20022;-77
2022/02/26 00:39:17;;;;;;;23.27;6.70;;;4.10;99.90;;;;;;2065738;28;20034;-76
2022/02/26 00:40:18;;;;;;;26.35;6.38;;;4.10;99.90;;;;;;2057796;28;20047;-76
2022/02/26 00:41:19;;;;;;;23.95;6.47;;;4.10;99.90;;;;;;2074364;28;20101;-77
2022/02/26 00:42:19;;;;;;;24.55;6.85;;;4.10;99.90;;;;;;2066247;28;20058;-78
2022/02/26 00:43:21;;;;;;;24.77;6.63;;;4.10;99.90;;;;;;2070017;28;20030;-77
2022/02/26 00:44:22;;;;;;;24.90;6.30;;;4.10;99.90;;;;;;2079068;28;20029;-77
2022/02/26 00:45:22;;;;;;;21.42;6.20;;;4.10;99.90;;;;;;2079614;28;20082;-76
2022/02/26 00:46:23;;;;;;;21.65;6.18;;;4.10;99.90;;;;;;2065817;28;20026;-77
2022/02/26 00:47:24;;;;;;;24.30;6.57;;;4.10;99.90;;;;;;2066466;28;20022;-77
2022/02/26 00:49:46;;;;;;;21.63;5.97;;;4.10;99.90;;;;;;2066698;28;20034;-79
2022/02/26 00:49:47;;;;;;;19.63;6.07;;;4.10;99.90;;;;;;2066090;28;20027;-78
2022/02/26 00:50:48;;;;;;;26.92;6.32;;;4.10;99.90;;;;;;2074206;28;20077;-78
2022/02/26 00:51:49;;;;;;;25.38;6.07;;;4.10;99.90;;;;;;2073105;28;20071;-78
2022/02/26 00:52:52;;;;;;;25.92;6.45;;;4.10;99.90;;;;;;2060131;28;20034;-77
2022/02/26 00:53:52;;;;;;;23.95;6.25;;;4.10;99.90;;;;;;2059421;28;20030;-77
2022/02/26 00:54:53;;;;;;;25.00;6.30;;;4.10;99.90;;;;;;2059812;28;20401;-78
2022/02/26 00:55:54;;;;;;;26.77;5.75;;;4.10;99.90;;;;;;2072618;28;20057;-76
2022/02/26 00:56:54;;;;;;;23.23;6.07;;;4.10;99.90;;;;;;2058804;28;20038;-78
2022/02/26 00:57:55;;;;;;;29.50;6.22;;;4.10;99.90;;;;;;2058673;28;20113;-78
2022/02/26 00:58:56;;;;;;;19.25;5.75;;;4.10;99.90;;;;;;2058281;28;20076;-77
2022/02/26 00:59:57;;;;;;;26.48;6.32;;;4.10;99.90;;;;;;2059330;28;20106;-78
2022/02/26 01:00:57;;;;;;;30.17;6.35;;;4.20;99.90;;;;;;2059854;28;20612;-79
2022/02/26 01:01:58;;;;;;;23.92;6.57;;;4.10;99.90;;;;;;2059425;28;20509;-77
2022/02/26 01:02:59;;;;;;;22.92;5.82;;;4.10;99.90;;;;;;2067192;28;20057;-78
2022/02/26 01:03:59;;;;;;;18.73;5.70;;;4.10;99.90;;;;;;2066366;28;20225;-78
2022/02/26 01:05:01;;;;;;;22.77;6.20;;;4.10;99.90;;;;;;2065166;28;20034;-78
2022/02/26 01:06:02;;;;;;;23.08;6.18;;;4.20;99.90;;;;;;2067691;28;20105;-78
2022/02/26 01:07:04;;;;;;;29.08;6.30;;;4.20;99.90;;;;;;2068012;28;20038;-78
2022/02/26 01:08:05;;;;;;;24.27;5.90;;;4.20;99.90;;;;;;2068267;28;20022;-77
2022/02/26 01:09:06;;;;;;;27.35;5.97;;;4.20;99.90;;;;;;2068586;28;20140;-78
2022/02/26 01:10:08;;;;;;;27.05;6.18;;;4.20;99.90;;;;;;2066224;28;20763;-78
2022/02/26 01:11:08;;;;;;;30.60;5.90;;;4.20;99.90;;;;;;2065020;28;20038;-78
2022/02/26 01:12:10;;;;;;;20.52;5.63;;;4.20;99.90;;;;;;2066403;28;20054;-77
2022/02/26 01:13:11;;;;;;;23.95;5.90;;;4.20;99.90;;;;;;2068678;28;20041;-76
2022/02/26 01:14:11;;;;;;;22.27;5.63;;;4.20;99.90;;;;;;2074941;28;20125;-78
2022/02/26 01:15:12;;;;;;;24.38;5.63;;;4.20;99.90;;;;;;2077830;28;20026;-78
2022/02/26 01:16:13;;;;;;;24.27;5.60;;;4.20;99.90;;;;;;2078039;28;20026;-77
2022/02/26 01:17:16;;;;;;;22.77;5.90;;;4.20;99.90;;;;;;2077344;28;20033;-78
2022/02/26 01:18:17;;;;;;;29.67;5.70;;;4.20;99.90;;;;;;2078045;28;20475;-78
2022/02/26 01:19:18;;;;;;;25.05;5.75;;;4.20;99.90;;;;;;2076620;28;20026;-77
2022/02/26 01:20:19;;;;;;;28.33;5.90;;;4.20;99.90;;;;;;2074895;28;20302;-78
2022/02/26 01:21:20;;;;;;;28.05;5.88;;;4.20;99.90;;;;;;2082141;28;20570;-77
2022/02/26 01:22:20;;;;;;;19.95;5.10;;;4.20;99.90;;;;;;2075153;28;20092;-78
2022/02/26 01:23:21;;;;;;;22.70;5.57;;;4.20;99.90;;;;;;2071270;28;20109;-77
2022/02/26 01:24:22;;;;;;;22.73;5.05;;;4.20;99.90;;;;;;2067719;28;20149;-77
2022/02/26 01:25:23;;;;;;;24.25;5.35;;;4.20;99.90;;;;;;2066931;28;20494;-77
2022/02/26 01:26:24;;;;;;;27.50;5.40;;;4.20;99.90;;;;;;2065894;28;20118;-77
2022/02/26 01:27:24;;;;;;;26.50;5.25;;;4.20;99.90;;;;;;2065816;28;20034;-76
2022/02/26 01:28:25;;;;;;;23.40;5.20;;;4.20;99.90;;;;;;2065792;28;20023;-76
2022/02/26 01:29:26;;;;;;;23.38;5.47;;;4.20;99.90;;;;;;2065876;28;20080;-77
2022/02/26 01:30:28;;;;;;;28.20;5.32;;;4.20;99.90;;;;;;2069877;28;20056;-77
2022/02/26 01:31:36;;;;;;;27.55;5.70;;;4.20;99.90;;;;;;2056524;28;20184;-77
2022/02/26 01:32:40;;;;;;;28.25;4.95;;;4.20;99.90;;;;;;2056879;28;20027;-76
2022/02/26 01:33:40;;;;;;;26.77;4.95;;;4.20;99.90;;;;;;2049415;28;20498;-77
2022/02/26 01:34:41;;;;;;;25.90;4.82;;;4.20;99.90;;;;;;2040342;29;20123;-76
2022/02/26 01:35:42;;;;;;;21.67;5.03;;;4.20;99.90;;;;;;2049121;29;20035;-77
2022/02/26 01:36:43;;;;;;;18.30;4.50;;;4.20;99.90;;;;;;2057107;28;20062;-76
2022/02/26 01:37:43;;;;;;;23.08;4.40;;;4.20;99.90;;;;;;2057078;28;20038;-77
2022/02/26 01:38:44;;;;;;;22.60;4.80;;;4.20;99.90;;;;;;2057949;28;20438;-78
2022/02/26 01:39:44;;;;;;;21.40;4.75;;;4.20;99.90;;;;;;2064793;28;20030;-77
2022/02/26 01:40:45;;;;;;;24.65;4.90;;;4.20;99.90;;;;;;2065102;28;20080;-77
2022/02/26 01:41:46;;;;;;;27.30;4.50;;;4.20;99.90;;;;;;2057895;28;20502;-78
2022/02/26 01:42:46;;;;;;;22.80;5.05;;;4.20;99.90;;;;;;2057919;28;20062;-77
2022/02/26 01:43:47;;;;;;;25.90;4.32;;;4.20;99.90;;;;;;2058075;28;20022;-77
2022/02/26 01:44:49;;;;;;;22.80;4.75;;;4.20;99.90;;;;;;2056581;28;20058;-76
2022/02/26 01:45:52;;;;;;;22.92;4.82;;;4.20;99.90;;;;;;2065418;28;20069;-77
2022/02/26 01:46:52;;;;;;;25.50;4.85;;;4.20;99.90;;;;;;2072751;28;20569;-78
2022/02/26 01:47:54;;;;;;;25.48;4.40;;;4.20;99.90;;;;;;2062369;28;20034;-77
2022/02/26 01:48:54;;;;;;;22.83;4.53;;;4.20;99.90;;;;;;2055790;28;20034;-76
2022/02/26 01:49:55;;;;;;;20.52;4.13;;;4.20;99.90;;;;;;2049135;28;20110;-77
2022/02/26 01:50:56;;;;;;;26.52;5.05;;;4.20;99.90;;;;;;2056878;28;20019;-77
2022/02/26 01:51:57;;;;;;;26.20;5.13;;;4.20;99.90;;;;;;2058101;28;20019;-76
2022/02/26 01:52:58;;;;;;;26.10;5.13;;;4.20;99.90;;;;;;2058634;28;20034;-76
2022/02/26 01:53:59;;;;;;;23.10;4.55;;;4.20;99.90;;;;;;2054631;28;20182;-76
2022/02/26 01:55:00;;;;;;;22.17;4.80;;;4.20;99.90;;;;;;1206094;28;10001833;-76
2022/02/26 01:56:05;;;;;;;21.02;4.50;;;4.20;99.90;;;;;;2073269;28;20311;-76
2022/02/26 01:58:00;;;;;;;23.20;4.45;;;4.20;99.90;;;;;;2064444;28;20045;-76
2022/02/26 01:59:20;;;;;;;28.95;4.70;;;4.20;99.90;;;;;;2057001;28;20057;-76
2022/02/26 02:00:20;;;;;;;20.92;4.90;;;4.20;99.90;;;;;;2057278;28;20038;-77
2022/02/26 02:01:25;;;;;;;28.42;5.18;;;4.20;99.90;;;;;;2064952;28;20085;-77
2022/02/26 02:02:25;;;;;;;21.85;4.82;;;4.20;99.90;;;;;;2059856;28;20943;-77
2022/02/26 02:03:27;;;;;;;28.52;5.28;;;4.20;99.90;;;;;;2062651;28;20026;-76
2022/02/26 02:04:27;;;;;;;30.88;5.75;;;4.20;99.90;;;;;;2063297;28;20117;-77
2022/02/26 02:05:30;;;;;;;31.38;6.13;;;4.20;99.90;;;;;;2056805;28;20027;-76
2022/02/26 02:06:32;;;;;;;33.05;6.20;;;4.20;99.90;;;;;;2057155;28;20518;-77
2022/02/26 02:07:32;;;;;;;27.05;6.10;;;4.20;99.90;;;;;;2065836;28;20030;-77
2022/02/26 02:08:34;;;;;;;32.50;5.97;;;4.20;99.90;;;;;;2072864;28;20038;-78
2022/02/26 02:09:36;;;;;;;24.63;5.20;;;4.20;99.90;;;;;;2072726;28;20113;-77
2022/02/26 02:10:39;;;;;;;30.45;5.57;;;4.20;99.90;;;;;;2064830;28;20437;-77
2022/02/26 02:11:40;;;;;;;27.27;5.63;;;4.20;99.90;;;;;;2065017;28;20022;-77
2022/02/26 02:12:41;;;;;;;31.45;6.10;;;4.30;99.90;;;;;;2064888;28;20033;-77
2022/02/26 02:13:41;;;;;;;31.48;5.50;;;4.20;99.90;;;;;;2056896;28;20500;-78
2022/02/26 02:14:45;;;;;;;26.17;5.35;;;4.30;99.90;;;;;;2064323;28;20397;-77
2022/02/26 02:15:46;;;;;;;30.02;5.47;;;4.30;99.90;;;;;;2072227;28;20072;-76
2022/02/26 02:16:47;;;;;;;28.33;6.00;;;4.30;99.90;;;;;;2064503;28;20477;-78
2022/02/26 02:17:47;;;;;;;29.25;5.72;;;4.20;99.90;;;;;;2064511;28;20034;-77
2022/02/26 02:18:48;;;;;;;25.73;5.50;;;4.20;99.90;;;;;;2064904;28;20018;-78
2022/02/26 02:19:50;;;;;;;28.92;5.70;;;4.30;99.90;;;;;;2053546;28;20030;-77
2022/02/26 02:20:51;;;;;;;24.88;5.22;;;4.20;99.90;;;;;;2058656;28;20030;-78
2022/02/26 02:21:52;;;;;;;31.27;6.20;;;4.20;99.90;;;;;;2058107;28;20042;-77
2022/02/26 02:22:52;;;;;;;23.58;5.47;;;4.20;99.90;;;;;;2065390;28;20061;-77
2022/02/26 02:23:53;;;;;;;28.70;6.20;;;4.20;99.90;;;;;;2056249;28;20026;-76
2022/02/26 02:24:53;;;;;;;28.17;5.82;;;4.20;99.90;;;;;;2049304;28;20114;-77
2022/02/26 02:25:55;;;;;;;29.92;5.95;;;4.20;99.90;;;;;;2064204;28;20034;-76
2022/02/26 02:26:59;;;;;;;21.27;5.00;;;4.20;99.90;;;;;;2072656;28;20797;-77
2022/02/26 02:28:01;;;;;;;31.95;5.43;;;4.20;99.90;;;;;;2076127;28;20491;-78
2022/02/26 02:29:03;;;;;;;30.38;6.70;;;4.20;99.90;;;;;;2059582;28;20019;-78
2022/02/26 02:30:05;;;;;;;29.10;5.50;;;4.20;99.90;;;;;;2059649;28;20522;-79
2022/02/26 02:31:08;;;;;;;30.02;5.95;;;4.20;99.90;;;;;;2058154;28;20489;-79
2022/02/26 02:32:08;;;;;;;33.10;5.70;;;4.20;99.90;;;;;;2050295;28;20027;-78
2022/02/26 02:33:09;;;;;;;30.40;5.55;;;4.20;99.90;;;;;;2050108;28;20086;-78
2022/02/26 02:34:10;;;;;;;23.40;5.10;;;4.20;99.90;;;;;;2049246;28;20047;-79
2022/02/26 02:35:30;;;;;;;29.08;5.90;;;4.20;99.90;;;;;;2050103;28;20016;-78
2022/02/26 02:36:40;;;;;;;27.60;5.38;;;4.20;99.90;;;;;;2063659;28;20129;-78
2022/02/26 02:37:40;;;;;;;28.75;5.70;;;4.20;99.90;;;;;;2065710;28;20092;-78
2022/02/26 02:38:41;;;;;;;26.10;5.40;;;4.20;99.90;;;;;;2050033;28;20023;-79
2022/02/26 02:39:42;;;;;;;28.13;5.40;;;4.20;99.90;;;;;;2050702;28;20031;-78
2022/02/26 02:40:45;;;;;;;25.60;4.80;;;4.20;99.90;;;;;;2058395;28;20581;-77
2022/02/26 02:41:46;;;;;;;30.58;5.80;;;4.20;99.90;;;;;;2050112;28;20031;-78
2022/02/26 02:42:47;;;;;;;24.70;5.65;;;4.20;99.90;;;;;;2050455;28;20549;-78
2022/02/26 02:43:47;;;;;;;28.50;5.43;;;4.20;99.90;;;;;;2050596;28;20024;-79
2022/02/26 02:44:48;;;;;;;26.23;5.40;;;4.20;99.90;;;;;;2057835;28;20494;-79
2022/02/26 02:45:49;;;;;;;29.95;5.43;;;4.20;99.90;;;;;;2058594;28;20078;-79
2022/02/26 02:46:50;;;;;;;29.75;5.43;;;4.20;99.90;;;;;;2058816;28;20073;-80
2022/02/26 02:47:51;;;;;;;28.25;5.32;;;4.20;99.90;;;;;;2050296;28;20038;-78
2022/02/26 02:48:52;;;;;;;30.95;5.75;;;4.20;99.90;;;;;;2048921;28;20049;-76
2022/02/26 02:49:53;;;;;;;26.52;5.18;;;4.20;99.90;;;;;;2056687;28;20482;-74
2022/02/26 02:50:54;;;;;;;21.27;5.45;;;4.20;99.90;;;;;;2057248;28;20031;-77
2022/02/26 02:51:55;;;;;;;28.77;5.40;;;4.20;99.90;;;;;;2064743;28;20030;-77
2022/02/26 02:52:55;;;;;;;27.85;5.63;;;4.20;99.90;;;;;;2064770;28;20026;-77
2022/02/26 02:53:56;;;;;;;20.98;4.82;;;4.20;99.90;;;;;;2057230;28;20018;-77
2022/02/26 02:54:57;;;;;;;26.98;5.60;;;4.20;99.90;;;;;;2056725;28;20105;-76
2022/02/26 02:55:57;;;;;;;28.65;5.30;;;4.20;99.90;;;;;;2057170;28;20042;-76
2022/02/26 02:56:58;;;;;;;24.25;5.10;;;4.20;99.90;;;;;;2056792;28;20019;-76
2022/02/26 02:57:59;;;;;;;25.85;5.28;;;4.20;99.90;;;;;;2057239;28;20031;-77
2022/02/26 02:59:00;;;;;;;29.35;5.07;;;4.20;99.90;;;;;;2069727;28;20448;-77
2022/02/26 03:00:02;;;;;;;26.75;5.20;;;4.20;99.90;;;;;;2073422;28;20034;-77
2022/02/26 03:01:03;;;;;;;23.23;5.45;;;4.20;99.90;;;;;;2073429;28;20393;-77
2022/02/26 03:02:04;;;;;;;29.38;5.57;;;4.20;99.90;;;;;;2073079;28;20591;-77
2022/02/26 03:03:07;;;;;;;22.85;4.93;;;4.20;99.90;;;;;;2073163;28;20057;-77
2022/02/26 03:04:08;;;;;;;26.63;5.50;;;4.20;99.90;;;;;;2071931;28;20121;-76
2022/02/26 03:05:10;;;;;;;29.80;5.45;;;4.20;99.90;;;;;;2064500;28;20393;-76
2022/02/26 03:06:10;;;;;;;29.17;5.55;;;4.20;99.90;;;;;;2072904;28;20030;-77
2022/02/26 03:07:11;;;;;;;23.50;4.97;;;4.20;99.90;;;;;;2073647;28;20029;-78
2022/02/26 03:08:13;;;;;;;27.10;5.05;;;4.20;99.90;;;;;;2072778;28;20050;-76
2022/02/26 03:09:14;;;;;;;28.77;5.50;;;4.20;99.90;;;;;;2072599;28;20050;-76
2022/02/26 03:10:15;;;;;;;23.00;5.00;;;4.20;99.90;;;;;;2073385;28;20052;-77
2022/02/26 03:11:17;;;;;;;30.73;5.57;;;4.20;99.90;;;;;;2073412;28;20030;-77
2022/02/26 03:12:18;;;;;;;28.92;5.20;;;4.20;99.90;;;;;;2073416;28;20022;-76
2022/02/26 03:13:20;;;;;;;22.08;5.10;;;4.20;99.90;;;;;;2073308;28;20062;-77
2022/02/26 03:14:20;;;;;;;25.30;5.20;;;4.20;99.90;;;;;;2072492;28;20799;-76
2022/02/26 03:15:23;;;;;;;25.10;5.35;;;4.20;99.90;;;;;;2073410;28;20034;-76
2022/02/26 03:16:23;;;;;;;33.38;5.80;;;4.20;99.90;;;;;;2073644;28;20493;-77
2022/02/26 03:17:24;;;;;;;21.55;5.03;;;4.20;99.90;;;;;;2073514;28;20026;-77
2022/02/26 03:18:25;;;;;;;24.52;5.10;;;4.20;99.90;;;;;;2073443;28;20049;-76
2022/02/26 03:19:26;;;;;;;28.20;5.38;;;4.20;99.90;;;;;;2073427;28;20080;-76
2022/02/26 03:20:26;;;;;;;29.48;5.47;;;4.20;99.90;;;;;;2064296;28;20081;-76
2022/02/26 03:21:27;;;;;;;30.70;4.97;;;4.20;99.90;;;;;;2064578;28;20038;-77
2022/02/26 03:22:29;;;;;;;24.35;5.05;;;4.20;99.90;;;;;;2072736;28;20021;-77
2022/02/26 03:23:29;;;;;;;28.27;5.28;;;4.20;99.90;;;;;;2072858;28;20576;-76
2022/02/26 03:24:30;;;;;;;26.27;5.47;;;4.20;99.90;;;;;;2072446;28;20030;-76
2022/02/26 03:25:31;;;;;;;30.58;5.75;;;4.20;99.90;;;;;;2073586;28;20465;-76
2022/02/26 03:26:33;;;;;;;27.67;5.38;;;4.20;99.90;;;;;;2073383;28;20049;-77
2022/02/26 03:27:34;;;;;;;32.40;5.68;;;4.20;99.90;;;;;;2073245;28;20033;-76
2022/02/26 03:28:34;;;;;;;24.20;5.20;;;4.20;99.90;;;;;;2073165;28;20038;-76
2022/02/26 03:29:35;;;;;;;22.67;5.07;;;4.20;99.90;;;;;;2073320;28;20099;-75
2022/02/26 03:30:36;;;;;;;30.45;5.53;;;4.20;99.90;;;;;;2080735;28;20072;-76
2022/02/26 03:31:38;;;;;;;26.65;5.43;;;4.20;99.90;;;;;;2080614;28;20396;-76
2022/02/26 03:32:39;;;;;;;28.20;6.10;;;4.20;99.90;;;;;;2073014;28;20387;-76
2022/02/26 03:33:40;;;;;;;25.60;5.28;;;4.20;99.90;;;;;;2072993;28;20037;-76
2022/02/26 03:34:40;;;;;;;33.60;6.25;;;4.20;99.90;;;;;;2072272;28;20030;-76
2022/02/26 03:35:41;;;;;;;27.63;5.70;;;4.20;99.90;;;;;;2073043;28;20044;-76
2022/02/26 03:36:42;;;;;;;31.35;6.20;;;4.20;99.90;;;;;;2073123;28;20390;-76
2022/02/26 03:37:43;;;;;;;26.85;6.28;;;4.20;99.90;;;;;;2073231;28;20078;-77
2022/02/26 03:38:43;;;;;;;32.10;6.65;;;4.10;99.90;;;;;;2073027;28;20057;-76
2022/02/26 03:39:45;;;;;;;25.10;5.78;;;4.10;99.90;;;;;;2072376;28;20485;-76
2022/02/26 03:40:45;;;;;;;27.33;6.00;;;4.10;99.90;;;;;;2072554;28;20068;-76
2022/02/26 03:41:46;;;;;;;27.27;6.47;;;4.20;99.90;;;;;;2073239;28;20018;-75
2022/02/26 03:42:48;;;;;;;29.30;7.05;;;4.10;99.90;;;;;;2073114;28;20014;-75
2022/02/26 03:43:49;;;;;;;25.75;7.05;;;4.20;99.90;;;;;;2073093;28;20117;-74
2022/02/26 03:44:50;;;;;;;31.67;6.28;;;4.20;99.90;;;;;;2072257;28;20140;-76
2022/02/26 03:45:50;;;;;;;31.05;7.07;;;4.20;99.90;;;;;;2072643;28;20624;-75
2022/02/26 03:46:51;;;;;;;29.15;6.13;;;4.10;99.90;;;;;;2072474;28;20094;-75
2022/02/26 03:47:52;;;;;;;28.35;6.25;;;4.20;99.90;;;;;;2072522;28;20029;-76
2022/02/26 03:48:52;;;;;;;25.92;5.93;;;4.10;99.90;;;;;;2072550;28;20362;-75
2022/02/26 03:49:53;;;;;;;28.85;6.68;;;4.10;99.90;;;;;;2080779;28;20075;-74
2022/02/26 03:50:54;;;;;;;26.50;5.90;;;4.10;99.90;;;;;;2080654;28;20025;-75
2022/02/26 03:51:55;;;;;;;27.60;6.20;;;4.10;99.90;;;;;;2064066;28;20123;-76
2022/02/26 03:52:55;;;;;;;24.52;6.13;;;4.10;99.90;;;;;;2064401;28;20136;-75
2022/02/26 03:53:56;;;;;;;28.02;6.18;;;4.10;99.90;;;;;;2072565;28;20400;-76
2022/02/26 03:54:56;;;;;;;26.33;6.18;;;4.10;99.90;;;;;;2072048;28;20120;-76
2022/02/26 03:55:59;;;;;;;25.73;5.93;;;4.10;99.90;;;;;;2073057;28;20024;-76
2022/02/26 03:56:59;;;;;;;28.00;6.20;;;4.10;99.90;;;;;;2073235;28;20030;-75
2022/02/26 03:58:00;;;;;;;31.23;6.70;;;4.10;99.90;;;;;;2073047;28;20053;-76
2022/02/26 03:59:00;;;;;;;24.48;6.05;;;4.10;99.90;;;;;;2073065;28;20028;-76
2022/02/26 04:00:05;;;;;;;25.70;6.53;;;4.10;99.90;;;;;;2073254;28;20161;-75
2022/02/26 04:01:12;;;;;;;;;;;4.10;99.90;;;;;;2073688;28;20425;-76
2022/02/26 04:02:12;;;;;;;28.48;6.03;;;4.10;99.90;;;;;;2073104;28;19953;-76
2022/02/26 04:03:13;;;;;;;29.60;6.45;;;4.10;99.90;;;;;;2080503;28;20021;-75
2022/02/26 04:04:13;;;;;;;26.70;6.05;;;4.10;99.90;;;;;;2079553;28;20605;-76
2022/02/26 04:05:14;;;;;;;24.90;5.70;;;4.10;99.90;;;;;;2073104;28;20025;-75
2022/02/26 04:06:15;;;;;;;28.20;5.60;;;4.10;99.90;;;;;;2080761;28;20118;-76
2022/02/26 04:07:16;;;;;;;28.45;6.30;;;4.10;99.90;;;;;;2072696;28;20045;-76
2022/02/26 04:08:17;;;;;;;27.35;5.93;;;4.10;99.90;;;;;;2072393;28;20513;-77
2022/02/26 04:09:18;;;;;;;27.17;5.85;;;4.10;99.90;;;;;;2080747;28;20029;-76
2022/02/26 04:10:18;;;;;;;31.77;6.00;;;4.10;99.90;;;;;;2080851;28;20108;-77
2022/02/26 04:11:19;;;;;;;28.92;5.97;;;4.10;99.90;;;;;;2073252;28;20460;-76
2022/02/26 04:12:20;;;;;;;26.73;5.75;;;4.10;99.90;;;;;;2073058;28;20026;-76
2022/02/26 04:13:20;;;;;;;27.25;5.97;;;4.10;99.90;;;;;;2073210;28;20164;-76
2022/02/26 04:14:21;;;;;;;28.30;6.00;;;4.10;99.90;;;;;;2071695;28;20034;-76
2022/02/26 04:15:22;;;;;;;26.63;5.57;;;4.10;99.90;;;;;;2072451;28;20099;-76
2022/02/26 04:16:22;;;;;;;33.03;5.65;;;4.10;99.90;;;;;;2080719;28;20025;-76
2022/02/26 04:17:23;;;;;;;27.95;5.70;;;4.10;99.90;;;;;;2064402;28;20022;-76
2022/02/26 04:18:25;;;;;;;24.70;5.43;;;4.10;99.90;;;;;;2064724;28;20042;-77
2022/02/26 04:19:25;;;;;;;22.33;5.72;;;4.10;99.90;;;;;;2073210;28;20336;-76
2022/02/26 04:20:26;;;;;;;26.52;6.15;;;4.10;99.90;;;;;;2073128;28;20022;-76
2022/02/26 04:21:28;;;;;;;31.20;5.80;;;4.10;99.90;;;;;;2073076;28;20042;-75
2022/02/26 04:22:29;;;;;;;28.50;6.53;;;4.10;99.90;;;;;;2073009;28;20467;-76
2022/02/26 04:23:30;;;;;;;26.05;5.70;;;4.10;99.90;;;;;;2072426;28;20022;-76
2022/02/26 04:24:30;;;;;;;29.92;6.07;;;4.10;99.90;;;;;;2071676;28;20029;-76
2022/02/26 04:25:31;;;;;;;24.20;5.50;;;4.10;99.90;;;;;;2072956;28;20037;-76
2022/02/26 04:26:32;;;;;;;26.08;5.88;;;4.10;99.90;;;;;;2073107;28;20033;-76
2022/02/26 04:27:32;;;;;;;26.50;5.53;;;4.10;99.90;;;;;;2074364;28;20494;-75
2022/02/26 04:28:33;;;;;;;21.73;5.43;;;4.10;99.90;;;;;;2074581;28;20030;-76
2022/02/26 04:29:34;;;;;;;23.88;5.30;;;4.10;99.90;;;;;;2073980;28;20068;-75
2022/02/26 04:30:37;;;;;;;25.65;5.68;;;4.10;99.90;;;;;;2073818;28;20030;-76
2022/02/26 04:31:38;;;;;;;26.75;5.55;;;4.10;99.90;;;;;;2074476;28;20058;-76
2022/02/26 04:32:41;;;;;;;24.48;5.43;;;4.10;99.90;;;;;;2074481;28;20710;-76
2022/02/26 04:33:41;;;;;;;23.55;4.97;;;4.10;99.90;;;;;;2073857;28;20034;-76
2022/02/26 04:34:42;;;;;;;19.95;4.57;;;4.10;99.90;;;;;;2073418;28;20034;-76
2022/02/26 04:35:42;;;;;;;20.33;4.85;;;4.10;99.90;;;;;;2074646;28;20041;-76
2022/02/26 04:36:43;;;;;;;27.65;5.00;;;4.10;99.90;;;;;;2074668;28;20129;-76
2022/02/26 04:37:44;;;;;;;24.45;5.20;;;4.20;99.90;;;;;;2074761;28;20040;-76
2022/02/26 04:38:45;;;;;;;23.83;5.38;;;4.10;99.90;;;;;;2074604;28;20030;-76
2022/02/26 04:39:45;;;;;;;22.90;5.35;;;4.20;99.90;;;;;;2074641;28;20509;-75
2022/02/26 04:40:46;;;;;;;26.55;5.22;;;4.20;99.90;;;;;;2074423;28;20026;-77
2022/02/26 04:41:47;;;;;;;22.00;5.18;;;4.20;99.90;;;;;;2074597;28;20029;-76
2022/02/26 04:42:47;;;;;;;22.33;5.10;;;4.10;99.90;;;;;;2074671;28;20112;-76
2022/02/26 04:43:49;;;;;;;28.25;5.07;;;4.10;99.90;;;;;;2074618;28;20030;-75
2022/02/26 04:44:49;;;;;;;25.25;5.00;;;4.10;99.90;;;;;;2073686;28;20493;-75
2022/02/26 04:45:50;;;;;;;19.92;4.82;;;4.20;99.90;;;;;;2081832;28;20022;-77
2022/02/26 04:46:51;;;;;;;24.80;5.30;;;4.20;99.90;;;;;;2082191;28;20025;-75
2022/02/26 04:47:51;;;;;;;28.45;5.32;;;4.20;99.90;;;;;;2082241;28;20061;-76
2022/02/26 04:48:52;;;;;;;25.48;5.13;;;4.20;99.90;;;;;;2073889;28;20014;-76
2022/02/26 04:49:53;;;;;;;23.25;5.20;;;4.20;99.90;;;;;;2074021;28;20068;-76
2022/02/26 04:50:53;;;;;;;32.42;5.57;;;4.20;99.90;;;;;;2074515;28;20053;-77
2022/02/26 04:51:54;;;;;;;24.17;4.97;;;4.20;99.90;;;;;;2074444;28;20057;-76
2022/02/26 04:52:54;;;;;;;25.25;5.20;;;4.10;99.90;;;;;;2082133;28;20025;-76
2022/02/26 04:53:55;;;;;;;20.45;4.90;;;4.20;99.90;;;;;;2073767;28;20026;-77
2022/02/26 04:54:56;;;;;;;21.50;5.07;;;4.20;99.90;;;;;;2064785;28;20473;-75
2022/02/26 04:55:56;;;;;;;23.20;5.05;;;4.10;99.90;;;;;;2074039;28;20022;-76
2022/02/26 04:56:57;;;;;;;22.20;4.90;;;4.20;99.90;;;;;;2073756;28;20476;-76
2022/02/26 04:57:58;;;;;;;22.42;4.40;;;4.20;99.90;;;;;;2073917;28;20057;-75
2022/02/26 04:58:58;;;;;;;25.95;5.28;;;4.20;99.90;;;;;;2068080;28;20026;-76
2022/02/26 04:59:59;;;;;;;24.17;4.80;;;4.20;99.90;;;;;;2073859;28;20076;-75
2022/02/26 05:01:00;;;;;;;21.65;4.93;;;4.20;99.90;;;;;;2073925;28;20018;-76
2022/02/26 05:02:00;;;;;;;23.33;4.70;;;4.10;99.90;;;;;;2075545;28;20101;-76
2022/02/26 05:03:02;;;;;;;24.95;4.72;;;4.10;99.90;;;;;;2075002;28;20030;-76
2022/02/26 05:04:03;;;;;;;18.15;4.55;;;4.10;99.90;;;;;;2065839;28;20044;-75
2022/02/26 05:05:04;;;;;;;26.85;5.00;;;4.10;99.90;;;;;;2065943;28;20053;-76
2022/02/26 05:06:04;;;;;;;19.77;4.40;;;4.10;99.90;;;;;;2066003;28;20030;-76
2022/02/26 05:07:05;;;;;;;28.20;4.60;;;4.10;99.90;;;;;;2066083;28;20100;-76
2022/02/26 05:08:06;;;;;;;24.63;6.22;;;4.10;99.90;;;;;;2065401;28;20474;-76
2022/02/26 05:09:06;;;;;;;24.58;4.93;;;4.10;99.90;;;;;;2065436;28;20023;-75
2022/02/26 05:10:07;;;;;;;23.42;4.82;;;4.10;99.90;;;;;;2065558;28;20023;-76
2022/02/26 05:11:08;;;;;;;26.15;5.43;;;4.10;99.90;;;;;;2057722;28;20031;-75
2022/02/26 05:12:09;;;;;;;24.02;4.65;;;4.10;99.90;;;;;;2057923;28;20492;-75
2022/02/26 05:13:10;;;;;;;20.48;4.85;;;4.10;99.90;;;;;;2065543;28;20026;-75
2022/02/26 05:14:12;;;;;;;19.77;4.30;;;4.10;99.90;;;;;;2057333;28;20034;-75
2022/02/26 05:15:12;;;;;;;19.58;4.00;;;4.10;99.90;;;;;;2065602;28;20386;-75
2022/02/26 05:16:13;;;;;;;23.08;4.70;;;4.10;99.90;;;;;;2065568;28;20030;-76
2022/02/26 05:17:13;;;;;;;23.27;5.18;;;4.00;99.90;;;;;;2058282;28;20065;-76
2022/02/26 05:18:14;;;;;;;23.10;4.82;;;4.10;99.90;;;;;;2058025;28;20478;-75
2022/02/26 05:19:15;;;;;;;24.90;4.75;;;4.10;99.90;;;;;;2058018;28;20058;-76
2022/02/26 05:20:15;;;;;;;24.25;4.78;;;4.10;99.90;;;;;;2057995;28;20073;-76